Time;durP1;ratioP1;P1;durP2;ratioP2;P2;SDS_P1;SDS_P2;PMS_P1;PMS_P2;Temp;Humidity;BMP_temperature;BMP_pressure;BME280_temperature;BME280_humidity;BME280_pressure;Samples;Min_cycle;Max_cycle;Signal;HPM_P1;HPM_P2
2022/01/10 00:01:59;;;;;;;11.10;4.90;;;;;;;-5.39;74.13;99707.69;5084108;28;20089;-84
2022/01/10 00:04:27;;;;;;;10.73;4.90;;;;;;;-5.46;74.20;99697.88;5094984;28;20444;-83
2022/01/10 00:06:54;;;;;;;12.45;4.82;;;;;;;-5.32;74.27;99719.13;5095179;28;20535;-85
2022/01/10 00:09:21;;;;;;;11.43;4.90;;;;;;;-5.33;73.87;99727.53;5095720;28;20417;-85
2022/01/10 00:11:48;;;;;;;14.20;5.47;;;;;;;-5.32;74.02;99725.09;5095121;28;20054;-85
2022/01/10 00:14:15;;;;;;;11.68;4.93;;;;;;;-5.23;73.79;99730.78;5094540;28;20117;-85
2022/01/10 00:16:42;;;;;;;10.48;5.22;;;;;;;-5.13;73.87;99718.66;5094064;28;20138;-84
2022/01/10 00:19:09;;;;;;;13.38;5.57;;;;;;;-5.17;73.91;99689.53;5094308;28;20056;-83
2022/01/10 00:21:36;;;;;;;12.90;5.03;;;;;;;-4.95;73.73;99709.59;5094519;28;20052;-83
2022/01/10 00:24:03;;;;;;;10.20;4.78;;;;;;;-4.79;73.64;99716.53;5095412;28;20055;-81
2022/01/10 00:26:30;;;;;;;11.07;4.85;;;;;;;-4.91;73.48;99685.19;5099229;28;20106;-83
2022/01/10 00:28:57;;;;;;;10.65;4.72;;;;;;;-4.90;73.51;99699.69;5093129;28;20105;-84
2022/01/10 00:31:24;;;;;;;10.43;4.78;;;;;;;-4.81;73.58;99711.34;5093864;28;20055;-84
2022/01/10 00:33:51;;;;;;;12.77;5.10;;;;;;;-4.86;73.53;99709.28;5094292;28;20051;-85
2022/01/10 00:36:18;;;;;;;8.45;4.40;;;;;;;-4.83;73.76;99723.09;5075900;28;20052;-85
2022/01/10 00:38:45;;;;;;;10.13;4.75;;;;;;;-5.04;74.00;99699.72;5094006;28;20093;-85
2022/01/10 00:41:12;;;;;;;11.00;4.03;;;;;;;-4.98;74.21;99733.22;5075927;28;20944;-85
2022/01/10 00:43:45;;;;;;;12.02;4.78;;;;;;;-5.10;74.24;99708.63;5094200;28;20060;-86
2022/01/10 00:46:18;;;;;;;8.18;4.32;;;;;;;-5.11;74.08;99712.84;5079289;28;20047;-87
2022/01/10 00:48:45;;;;;;;11.20;4.72;;;;;;;-5.26;74.38;99707.69;5080092;28;20449;-84
2022/01/10 00:51:13;;;;;;;12.13;4.70;;;;;;;-5.27;74.38;99710.13;5081244;28;20428;-85
2022/01/10 00:53:47;;;;;;;13.07;4.95;;;;;;;-5.36;74.21;99690.91;5102072;28;20152;-84
2022/01/10 00:56:15;;;;;;;9.63;4.68;;;;;;;-5.39;74.25;99680.56;5082488;28;20051;-84
2022/01/10 00:58:42;;;;;;;11.15;4.60;;;;;;;-5.27;74.12;99707.56;5097100;28;20078;-84
2022/01/10 01:01:09;;;;;;;10.82;5.07;;;;;;;-5.26;74.23;99714.44;5097110;28;20056;-86
2022/01/10 01:03:37;;;;;;;10.43;4.45;;;;;;;-5.26;74.25;99706.81;5079422;28;20051;-85
2022/01/10 01:06:04;;;;;;;11.30;4.32;;;;;;;-5.31;74.42;99709.06;5097353;28;20052;-84
2022/01/10 01:08:33;;;;;;;11.00;4.22;;;;;;;-5.38;74.16;99695.06;5079039;28;20119;-87
2022/01/10 01:11:27;;;;;;;9.63;4.50;;;;;;;-5.38;74.42;99707.78;5078166;28;20471;-85
2022/01/10 01:13:56;;;;;;;13.98;5.35;;;;;;;-5.39;74.40;99707.69;5096820;28;20055;-85
2022/01/10 01:19:53;;;;;;;10.52;4.72;;;;;;;-5.41;74.20;99705.03;5097169;28;20044;-87
2022/01/10 01:24:42;;;;;;;12.63;5.60;;;;;;;-5.47;74.49;99709.72;5097344;28;20058;-83
2022/01/10 01:27:10;;;;;;;17.73;5.88;;;;;;;-5.44;74.53;99698.84;5078997;28;20052;-83
2022/01/10 01:29:37;;;;;;;14.00;5.32;;;;;;;-5.54;74.38;99676.16;5097155;28;20059;-85
2022/01/10 01:32:04;;;;;;;14.05;5.40;;;;;;;-5.47;74.29;99689.38;5079047;28;20562;-84
2022/01/10 01:34:31;;;;;;;13.20;5.50;;;;;;;-5.56;74.78;99681.16;5080925;28;20131;-83
2022/01/10 01:36:58;;;;;;;15.18;6.00;;;;;;;-5.54;74.73;99682.13;5108920;28;20052;-84
2022/01/10 01:39:28;;;;;;;14.32;6.10;;;;;;;-5.54;74.72;99677.03;5104966;28;20052;-82
2022/01/10 01:42:17;;;;;;;15.55;6.18;;;;;;;-5.49;74.61;99687.50;5085070;28;20052;-83
2022/01/10 01:44:48;;;;;;;15.70;6.03;;;;;;;-5.49;74.87;99685.84;5114546;28;20052;-86
2022/01/10 01:47:15;;;;;;;15.45;5.60;;;;;;;-5.47;74.60;99683.41;5063155;28;20051;-87
2022/01/10 01:49:42;;;;;;;13.90;5.07;;;;;;;-5.53;74.76;99691.50;5098073;28;20060;-88
2022/01/10 01:52:09;;;;;;;12.13;5.63;;;;;;;-5.54;74.58;99688.88;5078915;28;20048;-85
2022/01/10 01:54:36;;;;;;;12.98;5.65;;;;;;;-5.58;74.74;99678.50;5079183;28;20101;-86
2022/01/10 01:57:05;;;;;;;14.50;6.00;;;;;;;-5.57;74.57;99675.19;5078368;28;20076;-86
2022/01/10 01:59:36;;;;;;;12.40;5.07;;;;;;;-5.57;74.95;99680.28;5097215;28;20052;-86
2022/01/10 02:02:04;;;;;;;13.35;5.50;;;;;;;-5.61;74.87;99675.75;5096986;28;20056;-87
2022/01/10 02:04:31;;;;;;;15.02;5.75;;;;;;;-5.60;74.80;99662.25;5077772;28;20115;-83
2022/01/10 02:06:59;;;;;;;13.38;5.13;;;;;;;-5.53;74.81;99680.47;5096922;28;20052;-85
2022/01/10 02:09:26;;;;;;;13.50;5.10;;;;;;;-5.46;74.59;99678.41;5096050;28;20109;-84
2022/01/10 02:11:55;;;;;;;15.90;5.27;;;;;;;-5.48;75.03;99669.78;5082301;28;20082;-84
2022/01/10 02:14:23;;;;;;;13.77;5.30;;;;;;;-5.40;75.17;99677.91;5078000;28;20775;-83
2022/01/10 02:16:56;;;;;;;12.70;5.25;;;;;;;-5.51;74.53;99666.16;5078647;28;20054;-84
2022/01/10 02:19:57;;;;;;;10.73;4.90;;;;;;;-5.53;75.24;99650.78;5095306;28;20583;-84
2022/01/10 02:22:29;;;;;;;11.05;5.05;;;;;;;-5.39;75.05;99674.59;5083484;28;20058;-83
2022/01/10 02:25:16;;;;;;;14.25;4.72;;;;;;;-5.37;74.61;99679.00;5077421;28;20143;-84
2022/01/10 02:27:45;;;;;;;11.32;5.28;;;;;;;-5.38;75.02;99678.88;5096135;28;20143;-86
2022/01/10 02:30:12;;;;;;;12.20;4.47;;;;;;;-5.43;74.94;99676.03;5095239;28;20102;-85
2022/01/10 02:32:39;;;;;;;9.98;4.35;;;;;;;-5.41;75.09;99681.25;5110939;28;20290;-84
2022/01/10 02:35:27;;;;;;;10.98;4.88;;;;;;;-5.43;75.01;99682.81;5077198;28;20059;-86
2022/01/10 02:37:55;;;;;;;10.73;5.00;;;;;;;-5.53;75.04;99660.09;5111388;28;20044;-85
2022/01/10 02:40:26;;;;;;;14.95;4.78;;;;;;;-5.46;74.75;99670.78;5062883;28;20101;-84
2022/01/10 02:42:54;;;;;;;12.35;4.40;;;;;;;-5.40;75.25;99675.34;5095731;28;20048;-87
2022/01/10 02:45:21;;;;;;;9.30;4.47;;;;;;;-5.40;75.18;99678.81;5060559;28;20527;-84
2022/01/10 02:47:50;;;;;;;9.80;3.88;;;;;;;-5.42;75.24;99684.56;5095271;28;20154;-86
2022/01/10 02:50:18;;;;;;;10.05;4.43;;;;;;;-5.51;74.90;99673.81;5076626;28;20471;-86
2022/01/10 02:52:46;;;;;;;10.48;4.10;;;;;;;-5.47;75.40;99681.72;5094959;28;20570;-85
2022/01/10 02:55:15;;;;;;;10.50;4.00;;;;;;;-5.51;75.34;99689.06;5077339;28;20131;-83
2022/01/10 02:57:43;;;;;;;9.98;4.50;;;;;;;-5.51;75.51;99689.06;5076680;28;20098;-84
2022/01/10 03:00:18;;;;;;;9.32;4.03;;;;;;;-5.56;75.21;99671.84;5076662;28;20101;-85
2022/01/10 03:02:49;;;;;;;8.88;4.13;;;;;;;-5.52;75.44;99674.59;5076996;28;20105;-84
2022/01/10 03:05:19;;;;;;;10.05;4.32;;;;;;;-5.62;75.31;99657.84;5110916;28;20104;-84
2022/01/10 03:07:49;;;;;;;9.18;4.03;;;;;;;-5.56;75.32;99674.38;5093919;28;20125;-84
2022/01/10 03:10:16;;;;;;;9.30;4.15;;;;;;;-5.65;75.58;99663.63;5076358;28;20079;-84
2022/01/10 03:12:43;;;;;;;8.52;4.15;;;;;;;-5.58;75.68;99675.06;5059538;28;20058;-84
2022/01/10 03:15:12;;;;;;;8.88;3.72;;;;;;;-5.66;75.55;99661.84;5076439;28;20048;-85
2022/01/10 03:17:40;;;;;;;10.90;4.53;;;;;;;-5.58;75.59;99669.97;5095049;28;20056;-83
2022/01/10 03:20:08;;;;;;;6.07;3.38;;;;;;;-5.56;75.54;99676.06;5077716;28;20062;-88
2022/01/10 03:22:36;;;;;;;10.05;3.97;;;;;;;-5.60;75.56;99680.06;5095298;28;20566;-85
2022/01/10 03:25:04;;;;;;;15.82;3.97;;;;;;;-5.72;75.73;99660.56;5077245;28;20097;-85
2022/01/10 03:27:33;;;;;;;5.60;3.45;;;;;;;-5.61;75.85;99672.34;5096663;28;20052;-86
2022/01/10 03:30:01;;;;;;;10.00;4.32;;;;;;;-5.63;75.72;99684.09;5095244;28;20056;-87
2022/01/10 03:32:29;;;;;;;10.23;4.40;;;;;;;-5.62;75.35;99675.66;5076769;28;20079;-85
2022/01/10 03:35:05;;;;;;;11.30;5.07;;;;;;;-5.54;75.92;99686.34;5059965;28;20056;-85
2022/01/10 03:37:32;;;;;;;9.63;4.05;;;;;;;-5.51;76.00;99702.69;5094917;28;20058;-85
2022/01/10 03:39:59;;;;;;;12.80;4.82;;;;;;;-5.51;75.75;99702.69;5094994;28;20048;-83
2022/01/10 03:42:26;;;;;;;9.02;4.47;;;;;;;-5.78;75.76;99646.69;5076565;28;20079;-85
2022/01/10 03:44:53;;;;;;;9.20;4.22;;;;;;;-5.44;75.82;99693.75;5096280;28;20067;-85
2022/01/10 03:47:21;;;;;;;9.25;4.32;;;;;;;-5.53;75.67;99686.41;5076668;28;20070;-85
2022/01/10 03:49:49;;;;;;;9.20;4.43;;;;;;;-5.54;75.63;99697.41;5077248;28;20075;-84
2022/01/10 03:52:16;;;;;;;12.30;5.00;;;;;;;-5.48;75.80;99695.25;5078836;28;20056;-82
2022/01/10 03:54:43;;;;;;;9.88;4.90;;;;;;;-5.46;75.66;99682.59;5094098;28;20083;-85
2022/01/10 03:57:12;;;;;;;13.27;5.35;;;;;;;-5.42;75.43;99685.47;5076934;28;20074;-83
2022/01/10 03:59:39;;;;;;;9.45;4.85;;;;;;;-5.42;75.60;99682.91;5095785;28;20048;-84
2022/01/10 04:02:06;;;;;;;13.13;5.55;;;;;;;-5.42;75.76;99679.47;5093874;28;20079;-84
2022/01/10 04:04:36;;;;;;;13.60;5.07;;;;;;;-5.44;75.46;99687.03;5076132;28;20052;-87
2022/01/10 04:07:05;;;;;;;9.20;4.43;;;;;;;-5.37;75.60;99684.09;5075781;28;20138;-86
2022/01/10 04:09:32;;;;;;;17.13;5.80;;;;;;;-5.40;75.62;99694.09;5095087;28;20052;-85
2022/01/10 04:11:59;;;;;;;13.52;5.65;;;;;;;-5.35;75.66;99707.97;5095635;28;20052;-85
2022/01/10 04:14:27;;;;;;;14.88;5.47;;;;;;;-5.46;75.58;99680.06;5062141;28;20063;-86
2022/01/10 04:16:54;;;;;;;14.70;5.80;;;;;;;-5.44;75.79;99691.22;5104336;28;20045;-83
2022/01/10 04:19:21;;;;;;;12.43;4.97;;;;;;;-5.40;75.78;99695.72;5089215;28;20058;-84
2022/01/10 04:21:50;;;;;;;12.07;4.90;;;;;;;-5.34;75.51;99703.75;5096345;28;20117;-84
2022/01/10 04:24:17;;;;;;;12.30;6.05;;;;;;;-5.42;76.05;99699.84;5112535;28;20055;-83
2022/01/10 04:26:44;;;;;;;12.57;4.38;;;;;;;-5.44;75.86;99686.13;5091428;28;20546;-84
2022/01/10 04:29:15;;;;;;;11.88;4.82;;;;;;;-5.39;75.49;99707.69;5093342;28;20051;-85
2022/01/10 04:31:42;;;;;;;9.73;4.30;;;;;;;-5.38;75.95;99728.16;5115183;28;20074;-87
2022/01/10 04:34:13;;;;;;;9.68;4.40;;;;;;;-5.31;75.79;99710.69;5096800;28;20059;-88
2022/01/10 04:36:43;;;;;;;11.88;5.15;;;;;;;-5.19;75.49;99721.69;5079164;28;20418;-87
2022/01/10 04:39:12;;;;;;;10.10;4.25;;;;;;;-5.39;75.28;99685.66;5096636;28;20090;-86
2022/01/10 04:41:40;;;;;;;11.60;4.70;;;;;;;-5.52;75.46;99688.19;5095652;28;20052;-85
2022/01/10 04:44:07;;;;;;;12.45;5.60;;;;;;;-5.32;75.61;99707.28;5087069;28;20028;-88
2022/01/10 04:46:35;;;;;;;10.82;4.07;;;;;;;-5.48;75.26;99679.97;5122059;28;20032;-87
2022/01/10 04:49:04;;;;;;;7.13;3.50;;;;;;;-5.32;75.34;99711.50;5087349;28;20056;-88
2022/01/10 04:51:32;;;;;;;7.93;3.90;;;;;;;-5.39;75.56;99700.91;5087468;28;20051;-88
2022/01/10 04:53:59;;;;;;;6.72;3.33;;;;;;;-5.43;74.93;99700.63;5120777;28;20066;-91
2022/01/10 04:56:30;;;;;;;7.60;3.70;;;;;;;-5.46;75.63;99706.41;5085785;28;20032;-88
2022/01/10 04:59:00;;;;;;;8.27;3.90;;;;;;;-5.45;75.49;99710.72;5101221;28;20566;-92
2022/01/10 05:01:29;;;;;;;7.93;3.10;;;;;;;-5.65;75.24;99706.88;5103577;28;20051;-87
2022/01/10 05:03:59;;;;;;;6.70;3.10;;;;;;;-5.81;75.99;99679.56;5103763;28;20039;-88
2022/01/10 05:06:26;;;;;;;7.10;3.20;;;;;;;-5.56;75.28;99716.78;5121341;28;20039;-85
2022/01/10 05:08:53;;;;;;;6.75;3.30;;;;;;;-5.60;75.26;99710.59;5103591;28;20062;-91
2022/01/10 05:11:40;;;;;;;5.95;3.13;;;;;;;-5.68;75.11;99714.31;5103860;28;20044;-89
2022/01/10 05:14:09;;;;;;;8.93;3.25;;;;;;;-5.70;75.81;99713.34;5137899;28;20032;-87
2022/01/10 05:16:36;;;;;;;6.55;3.30;;;;;;;-5.56;75.67;99716.78;5103434;28;20052;-88
2022/01/10 05:19:03;;;;;;;6.40;3.00;;;;;;;-5.54;75.49;99719.44;5098842;28;20612;-90
2022/01/10 05:21:31;;;;;;;8.02;3.05;;;;;;;-5.49;75.45;99748.59;5097502;28;20044;-89
2022/01/10 05:23:58;;;;;;;8.80;3.35;;;;;;;-5.89;75.29;99680.75;5114382;28;20048;-89
2022/01/10 05:26:25;;;;;;;8.77;3.35;;;;;;;-5.44;75.44;99757.41;5081558;28;20085;-87
2022/01/10 05:28:55;;;;;;;7.20;3.00;;;;;;;-5.42;75.26;99748.22;5115511;28;20139;-90
2022/01/10 05:31:22;;;;;;;7.85;3.13;;;;;;;-5.52;75.66;99733.16;5081212;28;20119;-89
2022/01/10 05:33:58;;;;;;;8.15;3.15;;;;;;;-5.41;75.51;99744.91;5064703;28;20044;-90
2022/01/10 05:36:25;;;;;;;9.80;3.30;;;;;;;-5.70;75.83;99702.28;5081558;28;20417;-89
2022/01/10 05:38:52;;;;;;;6.70;3.08;;;;;;;-5.37;75.31;99749.41;5104384;28;20119;-88
2022/01/10 05:41:22;;;;;;;5.70;2.88;;;;;;;-5.46;75.20;99728.41;5078657;28;20471;-92
2022/01/10 05:43:51;;;;;;;8.00;3.20;;;;;;;-5.28;75.00;99759.31;5080587;28;20054;-88
2022/01/10 05:46:21;;;;;;;6.55;2.40;;;;;;;-5.37;74.90;99755.38;5078622;28;20576;-90
2022/01/10 05:48:52;;;;;;;5.85;2.40;;;;;;;-5.39;75.25;99768.78;5080388;28;20048;-92
2022/01/10 05:51:22;;;;;;;5.88;2.53;;;;;;;-5.52;75.50;99756.06;5081265;28;20055;-91
2022/01/10 05:53:57;;;;;;;3.08;2.25;;;;;;;-5.56;75.59;99748.19;5080433;28;20083;-84
2022/01/10 05:56:25;;;;;;;6.57;2.78;;;;;;;-5.31;75.41;99764.19;5094223;28;20059;-84
2022/01/10 05:58:56;;;;;;;5.10;2.58;;;;;;;-5.17;74.92;99788.88;5081317;28;20072;-84
2022/01/10 06:01:23;;;;;;;4.45;2.55;;;;;;;-5.25;74.93;99779.84;5094642;28;20087;-85
2022/01/10 06:03:56;;;;;;;5.35;2.13;;;;;;;-5.22;75.50;99765.66;5098603;28;20052;-83
2022/01/10 06:06:33;;;;;;;4.38;2.30;;;;;;;-5.46;74.81;99752.25;5098506;28;20086;-86
2022/01/10 06:09:00;;;;;;;2.85;2.00;;;;;;;-5.43;75.47;99752.44;5105740;28;20068;-87
2022/01/10 06:11:27;;;;;;;5.10;2.40;;;;;;;-5.44;75.35;99742.13;5088170;28;20044;-87
2022/01/10 06:13:55;;;;;;;5.45;2.58;;;;;;;-5.46;75.51;99725.88;5083495;28;20044;-89
2022/01/10 06:16:24;;;;;;;5.57;2.95;;;;;;;-5.09;74.90;99776.66;5087620;28;20197;-90
2022/01/10 06:18:51;;;;;;;10.43;3.35;;;;;;;-5.11;74.73;99778.22;5055793;28;20051;-86
2022/01/10 06:21:23;;;;;;;5.70;2.75;;;;;;;-5.21;74.78;99766.53;5085740;28;20464;-89
2022/01/10 06:23:50;;;;;;;7.47;2.70;;;;;;;-5.15;74.72;99774.56;5079897;28;20060;-88
2022/01/10 06:26:19;;;;;;;4.57;2.10;;;;;;;-5.27;74.89;99777.22;5081185;28;20068;-88
2022/01/10 06:28:46;;;;;;;6.03;3.08;;;;;;;-5.46;75.07;99764.97;5082636;28;20075;-84
2022/01/10 06:31:14;;;;;;;6.03;2.28;;;;;;;-5.35;74.90;99786.91;5097709;28;20058;-82
2022/01/10 06:33:59;;;;;;;5.18;2.40;;;;;;;-5.56;74.97;99753.28;5071241;28;20039;-83
2022/01/10 06:36:27;;;;;;;4.65;2.40;;;;;;;-5.28;75.05;99797.50;5101754;28;20099;-86
2022/01/10 06:38:55;;;;;;;8.85;3.20;;;;;;;-5.36;75.03;99795.31;5097242;28;20056;-85
2022/01/10 06:41:23;;;;;;;6.22;3.25;;;;;;;-5.41;74.55;99780.53;5079273;28;20072;-84
2022/01/10 06:43:51;;;;;;;7.47;3.60;;;;;;;-5.46;75.07;99776.78;5079766;28;20115;-86
2022/01/10 06:46:20;;;;;;;5.60;2.45;;;;;;;-5.39;74.83;99777.31;5089292;28;20062;-87
2022/01/10 06:48:47;;;;;;;5.72;2.85;;;;;;;-5.58;75.59;99769.25;5089381;28;20139;-88
2022/01/10 06:51:18;;;;;;;7.18;2.78;;;;;;;-5.40;75.34;99788.28;5073491;28;20112;-87
2022/01/10 06:53:48;;;;;;;5.65;2.72;;;;;;;-5.53;74.95;99762.78;5105812;28;20056;-88
2022/01/10 06:56:15;;;;;;;5.15;2.83;;;;;;;-5.40;74.77;99777.19;5078858;28;20056;-89
2022/01/10 06:58:43;;;;;;;5.03;2.90;;;;;;;-5.45;75.02;99769.25;5080253;28;20545;-87
2022/01/10 07:01:17;;;;;;;;;;;;;;;-5.37;75.01;99797.78;5087037;28;20108;-90
2022/01/10 07:03:52;;;;;;;6.30;2.90;;;;;;;-5.51;75.47;99773.94;5122428;28;19924;-87
2022/01/10 07:06:22;;;;;;;6.88;3.00;;;;;;;-5.43;75.08;99769.38;5072415;28;20077;-87
2022/01/10 07:08:52;;;;;;;5.90;2.83;;;;;;;-5.08;74.93;99803.88;5090447;28;20418;-87
2022/01/10 07:11:29;;;;;;;7.72;3.83;;;;;;;-5.44;74.69;99760.88;5083271;28;20060;-88
2022/01/10 07:13:57;;;;;;;8.50;3.70;;;;;;;-5.23;74.48;99811.41;5123821;28;20055;-87
2022/01/10 07:16:26;;;;;;;8.38;3.83;;;;;;;-5.25;75.23;99807.88;5087811;28;20056;-88
2022/01/10 07:19:01;;;;;;;8.13;3.83;;;;;;;-5.35;75.01;99788.59;5086493;28;20412;-90
2022/01/10 07:21:36;;;;;;;7.38;3.55;;;;;;;-5.22;74.87;99805.53;5068297;28;20072;-92
2022/01/10 07:24:07;;;;;;;7.15;3.63;;;;;;;-5.38;74.82;99773.09;5084730;28;20063;-88
2022/01/10 07:26:34;;;;;;;9.95;4.00;;;;;;;-5.14;74.97;99778.91;5097660;28;20129;-87
2022/01/10 07:29:03;;;;;;;7.18;3.70;;;;;;;-5.05;74.55;99804.97;5097489;28;20055;-90
2022/01/10 07:31:30;;;;;;;6.03;3.40;;;;;;;-5.21;74.53;99782.69;5081460;28;20044;-88
2022/01/10 07:33:57;;;;;;;9.32;3.53;;;;;;;-5.12;74.70;99781.53;5098391;28;20051;-92
2022/01/10 07:36:24;;;;;;;5.40;3.03;;;;;;;-4.94;74.70;99819.25;5085206;28;20044;-88
2022/01/10 07:38:52;;;;;;;5.00;3.15;;;;;;;-4.90;74.70;99819.44;5074060;28;20059;-83
2022/01/10 07:41:19;;;;;;;4.15;2.90;;;;;;;-4.86;74.53;99821.41;5106582;28;20055;-82
2022/01/10 07:43:46;;;;;;;6.75;2.80;;;;;;;-4.89;74.55;99817.00;5105483;28;20116;-81
2022/01/10 07:46:14;;;;;;;6.63;3.05;;;;;;;-4.93;74.50;99815.03;5075923;28;20056;-82
2022/01/10 07:48:43;;;;;;;4.03;2.38;;;;;;;-4.86;74.60;99826.50;5110881;28;20051;-83
2022/01/10 07:51:14;;;;;;;5.68;2.97;;;;;;;-4.77;74.39;99815.25;5104235;28;20070;-86
2022/01/10 07:53:42;;;;;;;6.95;2.92;;;;;;;-4.79;74.19;99815.94;5093689;28;20056;-86
2022/01/10 07:56:10;;;;;;;7.28;3.20;;;;;;;-4.76;74.52;99808.47;5094409;28;20052;-86
2022/01/10 07:58:37;;;;;;;6.85;3.28;;;;;;;-4.76;74.26;99804.25;5093902;28;20070;-84
2022/01/10 08:01:05;;;;;;;7.25;3.08;;;;;;;-4.72;74.23;99812.97;5093588;28;20048;-84
2022/01/10 08:03:32;;;;;;;6.85;2.80;;;;;;;-4.79;74.13;99803.19;5098988;28;20058;-86
2022/01/10 08:06:00;;;;;;;8.00;3.47;;;;;;;-4.83;74.14;99806.31;5058527;28;20534;-85
2022/01/10 08:08:27;;;;;;;7.35;3.30;;;;;;;-4.75;74.09;99808.56;5093196;28;20121;-84
2022/01/10 08:10:54;;;;;;;6.47;3.00;;;;;;;-5.00;73.66;99767.03;5093453;28;20048;-84
2022/01/10 08:13:21;;;;;;;6.80;3.70;;;;;;;-4.72;73.79;99827.41;5094180;28;20052;-85
2022/01/10 08:15:48;;;;;;;7.13;4.30;;;;;;;-4.76;73.80;99806.78;5097784;28;20527;-85
2022/01/10 08:18:17;;;;;;;10.02;4.78;;;;;;;-4.72;73.92;99800.22;5097439;28;20082;-86
2022/01/10 08:20:44;;;;;;;10.40;5.35;;;;;;;-4.55;73.48;99816.59;5094332;28;20056;-86
2022/01/10 08:23:13;;;;;;;9.57;4.60;;;;;;;-4.56;73.30;99830.09;5074872;28;20082;-88
2022/01/10 08:25:41;;;;;;;9.27;4.78;;;;;;;-4.53;73.80;99821.00;5074576;28;20432;-85
2022/01/10 08:28:08;;;;;;;7.43;2.75;;;;;;;-4.57;73.31;99821.59;5074674;28;20056;-84
2022/01/10 08:30:35;;;;;;;5.57;3.70;;;;;;;-4.58;73.90;99812.19;5093079;28;20501;-84
2022/01/10 08:33:03;;;;;;;6.85;3.15;;;;;;;-4.81;73.59;99769.94;5092504;28;20051;-84
2022/01/10 08:35:33;;;;;;;9.98;3.50;;;;;;;-4.72;73.27;99786.63;5057668;28;20056;-86
2022/01/10 08:38:00;;;;;;;5.55;3.25;;;;;;;-4.77;73.25;99779.56;5092892;28;20117;-84
2022/01/10 08:40:29;;;;;;;6.60;3.53;;;;;;;-4.61;73.59;99816.19;5075015;28;20048;-85
2022/01/10 08:42:56;;;;;;;9.05;3.47;;;;;;;-4.58;73.20;99813.84;5093176;28;20286;-84
2022/01/10 08:45:23;;;;;;;4.32;2.38;;;;;;;-4.54;73.40;99815.78;5092663;28;20052;-85
2022/01/10 08:47:50;;;;;;;6.30;3.00;;;;;;;-4.50;73.14;99806.66;5079770;28;20109;-84
2022/01/10 08:50:17;;;;;;;4.57;2.80;;;;;;;-4.68;72.88;99788.56;5082464;28;20051;-84
2022/01/10 08:52:44;;;;;;;5.43;2.97;;;;;;;-4.68;73.29;99784.34;5074374;28;20048;-84
2022/01/10 08:55:12;;;;;;;3.88;2.13;;;;;;;-4.51;73.37;99820.22;5074303;28;20044;-85
2022/01/10 08:57:39;;;;;;;4.70;3.08;;;;;;;-4.58;73.33;99804.53;5095754;28;20117;-87
2022/01/10 09:00:08;;;;;;;6.88;3.13;;;;;;;-4.51;73.17;99810.91;5092354;28;20051;-85
2022/01/10 09:02:36;;;;;;;8.00;3.60;;;;;;;-4.55;73.02;99802.16;5092233;28;20071;-86
2022/01/10 09:05:03;;;;;;;4.60;3.15;;;;;;;-4.51;73.24;99816.00;5094409;28;20278;-85
2022/01/10 09:07:31;;;;;;;4.35;2.45;;;;;;;-4.60;73.24;99803.56;5096013;28;20513;-86
2022/01/10 09:09:57;;;;;;;5.82;3.47;;;;;;;-4.50;73.36;99811.78;5095499;28;20048;-84
2022/01/10 09:12:24;;;;;;;6.15;3.30;;;;;;;-4.55;73.41;99786.88;5095609;28;20054;-88
2022/01/10 09:14:52;;;;;;;9.57;3.28;;;;;;;-4.36;73.11;99816.94;5096521;28;20051;-86
2022/01/10 09:17:19;;;;;;;3.83;2.65;;;;;;;-4.46;73.33;99809.50;5096101;28;20135;-86
2022/01/10 09:19:46;;;;;;;6.45;2.83;;;;;;;-4.52;72.92;99826.97;5060982;28;20229;-86
2022/01/10 09:22:14;;;;;;;6.28;2.90;;;;;;;-4.44;73.39;99818.13;5078863;28;20051;-85
2022/01/10 09:24:46;;;;;;;7.95;3.30;;;;;;;-4.30;73.11;99801.16;5079745;28;20044;-85
2022/01/10 09:27:14;;;;;;;4.82;2.60;;;;;;;-4.24;72.84;99800.63;5103245;28;20074;-85
2022/01/10 09:29:45;;;;;;;8.23;3.28;;;;;;;-4.22;72.47;99812.66;5096542;28;20048;-85
2022/01/10 09:32:12;;;;;;;4.72;2.72;;;;;;;-4.43;72.97;99802.06;5079823;28;20146;-85
2022/01/10 09:34:39;;;;;;;6.97;3.47;;;;;;;-4.57;72.78;99785.00;5095976;28;20056;-85
2022/01/10 09:37:06;;;;;;;3.80;2.33;;;;;;;-4.47;73.04;99801.75;5095925;28;20047;-84
2022/01/10 09:39:33;;;;;;;4.38;2.72;;;;;;;-4.61;72.90;99793.25;5095669;28;20637;-84
2022/01/10 09:42:00;;;;;;;5.88;3.13;;;;;;;-4.49;73.47;99811.00;5096895;28;20501;-84
2022/01/10 09:44:27;;;;;;;7.32;3.15;;;;;;;-4.47;73.01;99805.19;5097179;28;20078;-85
2022/01/10 09:46:55;;;;;;;5.22;3.08;;;;;;;-4.53;73.09;99800.59;5095417;28;20410;-84
2022/01/10 09:49:22;;;;;;;5.32;2.60;;;;;;;-4.72;73.06;99758.56;5045004;28;20080;-84
2022/01/10 09:51:50;;;;;;;6.90;3.10;;;;;;;-4.43;72.86;99804.59;5096427;28;20074;-85
2022/01/10 09:54:18;;;;;;;6.78;3.22;;;;;;;-4.49;73.00;99790.59;5077528;28;20097;-83
2022/01/10 09:56:47;;;;;;;5.70;3.47;;;;;;;-4.41;72.87;99809.78;5084588;28;20052;-83
2022/01/10 09:59:14;;;;;;;8.48;3.42;;;;;;;-4.70;73.03;99757.00;5080378;28;20126;-85
2022/01/10 10:01:43;;;;;;;8.05;3.67;;;;;;;-4.36;72.99;99804.19;5095130;28;20444;-86
2022/01/10 10:04:12;;;;;;;6.55;3.28;;;;;;;-4.20;72.36;99817.88;5098875;28;20052;-87
2022/01/10 10:06:44;;;;;;;8.82;3.42;;;;;;;-4.15;72.42;99812.28;5079609;28;20048;-85
2022/01/10 10:09:37;;;;;;;5.90;3.13;;;;;;;-4.17;72.23;99808.75;5098848;28;20071;-85
2022/01/10 10:12:09;;;;;;;5.90;3.03;;;;;;;-4.24;72.08;99819.34;5080259;28;20044;-84
2022/01/10 10:14:37;;;;;;;8.88;3.47;;;;;;;-4.34;72.29;99797.50;5100536;28;20052;-84
2022/01/10 10:17:12;;;;;;;8.60;3.33;;;;;;;-4.30;72.24;99793.50;5099673;28;20055;-85
2022/01/10 10:19:41;;;;;;;7.72;3.53;;;;;;;-4.36;72.33;99782.91;5097062;28;20086;-84
2022/01/10 10:22:09;;;;;;;7.27;3.53;;;;;;;-4.37;72.50;99782.00;5096059;28;20052;-86
2022/01/10 10:24:36;;;;;;;5.50;3.03;;;;;;;-4.35;72.67;99799.97;5095313;28;20074;-83
2022/01/10 10:27:04;;;;;;;7.40;3.17;;;;;;;-4.41;72.48;99797.03;5095200;28;20493;-85
2022/01/10 10:29:31;;;;;;;4.03;2.58;;;;;;;-4.47;72.88;99805.19;5077520;28;20077;-88
2022/01/10 10:32:02;;;;;;;6.85;3.35;;;;;;;-4.43;73.00;99803.69;5097283;28;20051;-86
2022/01/10 10:34:33;;;;;;;7.22;3.22;;;;;;;-4.41;72.82;99799.59;5076856;28;20043;-86
2022/01/10 10:37:04;;;;;;;5.45;3.05;;;;;;;-4.40;72.98;99816.66;5094670;28;20463;-85
2022/01/10 10:39:34;;;;;;;6.88;3.30;;;;;;;-4.51;72.78;99794.72;5061463;28;20048;-85
2022/01/10 10:42:09;;;;;;;6.72;3.55;;;;;;;-4.39;73.10;99815.84;5094995;28;20052;-87
2022/01/10 10:44:37;;;;;;;5.05;3.35;;;;;;;-4.39;72.99;99810.75;5095903;28;20562;-83
2022/01/10 10:47:04;;;;;;;6.25;3.80;;;;;;;-4.56;72.87;99784.22;5098406;28;20056;-83
2022/01/10 10:49:36;;;;;;;6.22;3.05;;;;;;;-4.36;73.11;99809.28;5065631;28;20163;-83
2022/01/10 10:52:07;;;;;;;5.70;3.25;;;;;;;-4.36;72.90;99814.38;5098665;28;20066;-88
2022/01/10 10:54:41;;;;;;;7.00;3.80;;;;;;;-4.50;73.07;99801.56;5096546;28;20052;-86
2022/01/10 10:57:15;;;;;;;6.93;3.45;;;;;;;-4.50;72.97;99807.53;5078023;28;20052;-82
2022/01/10 10:59:43;;;;;;;5.63;3.13;;;;;;;-4.55;73.06;99791.97;5095485;28;20558;-87
2022/01/10 11:02:12;;;;;;;6.63;3.00;;;;;;;-4.36;72.98;99816.06;5096629;28;20055;-86
2022/01/10 11:04:41;;;;;;;5.03;3.00;;;;;;;-4.37;73.14;99810.06;5096229;28;20052;-83
2022/01/10 11:07:10;;;;;;;4.13;2.72;;;;;;;-4.25;72.91;99809.06;5095324;28;20120;-84
2022/01/10 11:09:57;;;;;;;7.38;2.80;;;;;;;-4.23;72.76;99803.28;5094395;28;20166;-82
2022/01/10 11:12:24;;;;;;;5.93;3.10;;;;;;;-4.04;72.42;99825.69;5076948;28;20071;-86
2022/01/10 11:14:54;;;;;;;7.75;2.92;;;;;;;-3.85;72.47;99827.69;5095203;28;20058;-83
2022/01/10 11:17:22;;;;;;;4.25;2.63;;;;;;;-3.82;71.89;99824.44;5095122;28;20048;-85
2022/01/10 11:20:18;;;;;;;4.38;2.63;;;;;;;-3.91;72.03;99822.22;5077401;28;20058;-84
2022/01/10 11:23:01;;;;;;;3.78;2.30;;;;;;;-3.89;71.78;99817.16;5095060;28;20052;-87
2022/01/10 11:25:39;;;;;;;5.32;2.85;;;;;;;-4.00;72.06;99808.88;5077904;28;20048;-82
2022/01/10 11:28:12;;;;;;;4.47;2.30;;;;;;;-4.09;72.01;99821.97;5095144;28;20056;-86
2022/01/10 11:30:43;;;;;;;5.25;2.78;;;;;;;-4.26;72.61;99817.50;5078332;28;20055;-85
2022/01/10 11:33:19;;;;;;;8.07;3.15;;;;;;;-4.28;73.03;99813.97;5101828;28;20070;-81
2022/01/10 11:36:00;;;;;;;3.83;2.50;;;;;;;-4.37;73.01;99829.59;5113690;28;20115;-80
2022/01/10 11:38:37;;;;;;;3.08;2.20;;;;;;;-4.42;73.07;99830.97;5096938;28;20024;-80
2022/01/10 11:41:11;;;;;;;3.92;2.45;;;;;;;-4.57;73.42;99808.84;5106217;28;20458;-87
2022/01/10 11:44:11;;;;;;;4.35;1.70;;;;;;;-4.59;73.11;99822.28;5063073;28;20493;-88
2022/01/10 11:46:49;;;;;;;5.40;2.50;;;;;;;-4.56;73.18;99828.47;5094677;28;20055;-85
2022/01/10 11:49:19;;;;;;;6.93;2.70;;;;;;;-4.59;73.73;99835.91;5079541;28;20159;-83